sensor_id;sensor_type;location;lat;lon;timestamp;P1;durP1;ratioP1;P2;durP2;ratioP2
74568;SDS011;63052;50.266;7.968;2022-10-16T00:09:46;6.23;;;1.40;;
74568;SDS011;63052;50.266;7.968;2022-10-16T00:19:49;6.53;;;1.80;;
74568;SDS011;63052;50.266;7.968;2022-10-16T00:29:52;6.27;;;1.77;;
74568;SDS011;63052;50.266;7.968;2022-10-16T00:39:54;9.63;;;1.57;;
74568;SDS011;63052;50.266;7.968;2022-10-16T00:50:39;6.63;;;1.83;;
74568;SDS011;63052;50.266;7.968;2022-10-16T01:00:07;5.77;;;1.43;;
74568;SDS011;63052;50.266;7.968;2022-10-16T01:10:17;6.30;;;1.60;;
74568;SDS011;63052;50.266;7.968;2022-10-16T01:20:26;4.83;;;1.10;;
74568;SDS011;63052;50.266;7.968;2022-10-16T01:30:32;1.80;;;0.90;;
74568;SDS011;63052;50.266;7.968;2022-10-16T01:40:37;6.57;;;1.20;;
74568;SDS011;63052;50.266;7.968;2022-10-16T01:50:43;3.70;;;1.57;;
74568;SDS011;63052;50.266;7.968;2022-10-16T02:00:47;3.80;;;0.83;;
74568;SDS011;63052;50.266;7.968;2022-10-16T02:10:50;4.80;;;2.00;;
74568;SDS011;63052;50.266;7.968;2022-10-16T02:20:54;4.93;;;1.67;;
74568;SDS011;63052;50.266;7.968;2022-10-16T02:30:59;1.77;;;0.97;;
74568;SDS011;63052;50.266;7.968;2022-10-16T02:41:04;1.10;;;0.80;;
74568;SDS011;63052;50.266;7.968;2022-10-16T02:51:06;3.10;;;1.00;;
74568;SDS011;63052;50.266;7.968;2022-10-16T03:01:09;2.17;;;0.80;;
74568;SDS011;63052;50.266;7.968;2022-10-16T03:11:13;4.33;;;0.93;;
74568;SDS011;63052;50.266;7.968;2022-10-16T03:21:16;2.00;;;0.80;;
74568;SDS011;63052;50.266;7.968;2022-10-16T03:31:18;2.03;;;0.63;;
74568;SDS011;63052;50.266;7.968;2022-10-16T03:41:21;1.77;;;0.80;;
74568;SDS011;63052;50.266;7.968;2022-10-16T03:51:23;0.97;;;0.70;;
74568;SDS011;63052;50.266;7.968;2022-10-16T04:01:26;1.47;;;0.70;;
74568;SDS011;63052;50.266;7.968;2022-10-16T04:11:28;1.13;;;0.60;;
74568;SDS011;63052;50.266;7.968;2022-10-16T04:21:31;1.83;;;0.60;;
74568;SDS011;63052;50.266;7.968;2022-10-16T04:31:34;1.47;;;0.77;;
74568;SDS011;63052;50.266;7.968;2022-10-16T04:41:36;2.97;;;0.60;;
74568;SDS011;63052;50.266;7.968;2022-10-16T04:51:39;0.70;;;0.70;;
74568;SDS011;63052;50.266;7.968;2022-10-16T05:01:41;2.73;;;0.70;;
74568;SDS011;63052;50.266;7.968;2022-10-16T05:11:44;1.90;;;0.70;;
74568;SDS011;63052;50.266;7.968;2022-10-16T05:21:47;1.30;;;0.70;;
74568;SDS011;63052;50.266;7.968;2022-10-16T05:31:50;2.57;;;0.90;;
74568;SDS011;63052;50.266;7.968;2022-10-16T05:41:53;4.17;;;1.23;;
74568;SDS011;63052;50.266;7.968;2022-10-16T05:51:56;6.63;;;0.70;;
74568;SDS011;63052;50.266;7.968;2022-10-16T06:01:59;3.03;;;0.90;;
74568;SDS011;63052;50.266;7.968;2022-10-16T06:12:02;0.67;;;0.50;;
74568;SDS011;63052;50.266;7.968;2022-10-16T06:22:04;2.60;;;0.60;;
74568;SDS011;63052;50.266;7.968;2022-10-16T06:32:08;2.47;;;0.60;;
74568;SDS011;63052;50.266;7.968;2022-10-16T06:42:10;3.23;;;0.80;;
74568;SDS011;63052;50.266;7.968;2022-10-16T06:52:13;4.67;;;1.13;;
74568;SDS011;63052;50.266;7.968;2022-10-16T07:02:15;7.00;;;1.00;;
74568;SDS011;63052;50.266;7.968;2022-10-16T07:12:18;4.20;;;1.03;;
74568;SDS011;63052;50.266;7.968;2022-10-16T07:22:20;2.23;;;0.80;;
74568;SDS011;63052;50.266;7.968;2022-10-16T07:32:23;1.03;;;0.93;;
74568;SDS011;63052;50.266;7.968;2022-10-16T07:42:26;5.23;;;1.70;;
74568;SDS011;63052;50.266;7.968;2022-10-16T07:52:29;7.33;;;1.40;;
74568;SDS011;63052;50.266;7.968;2022-10-16T08:02:32;4.23;;;0.97;;
74568;SDS011;63052;50.266;7.968;2022-10-16T08:12:34;1.77;;;1.00;;
74568;SDS011;63052;50.266;7.968;2022-10-16T08:22:37;5.43;;;2.30;;
74568;SDS011;63052;50.266;7.968;2022-10-16T08:32:39;4.53;;;1.23;;
74568;SDS011;63052;50.266;7.968;2022-10-16T08:52:53;13.47;;;7.40;;
74568;SDS011;63052;50.266;7.968;2022-10-16T09:03:03;8.60;;;3.80;;
74568;SDS011;63052;50.266;7.968;2022-10-16T09:23:37;4.33;;;2.40;;
74568;SDS011;63052;50.266;7.968;2022-10-16T09:33:39;14.43;;;3.63;;
74568;SDS011;63052;50.266;7.968;2022-10-16T09:43:53;9.67;;;2.30;;
74568;SDS011;63052;50.266;7.968;2022-10-16T09:54:02;6.13;;;1.77;;
74568;SDS011;63052;50.266;7.968;2022-10-16T10:04:09;3.23;;;1.60;;
74568;SDS011;63052;50.266;7.968;2022-10-16T10:24:21;14.50;;;3.17;;
74568;SDS011;63052;50.266;7.968;2022-10-16T10:55:09;3.53;;;1.37;;
74568;SDS011;63052;50.266;7.968;2022-10-16T11:05:38;5.43;;;0.90;;
74568;SDS011;63052;50.266;7.968;2022-10-16T11:15:41;6.13;;;0.97;;
74568;SDS011;63052;50.266;7.968;2022-10-16T11:25:45;7.60;;;1.90;;
74568;SDS011;63052;50.266;7.968;2022-10-16T11:36:04;5.30;;;1.63;;
74568;SDS011;63052;50.266;7.968;2022-10-16T11:46:25;6.63;;;1.40;;
74568;SDS011;63052;50.266;7.968;2022-10-16T11:56:28;3.47;;;2.43;;
74568;SDS011;63052;50.266;7.968;2022-10-16T12:16:59;1.83;;;0.87;;
74568;SDS011;63052;50.266;7.968;2022-10-16T12:27:03;3.03;;;1.20;;
74568;SDS011;63052;50.266;7.968;2022-10-16T12:37:19;1.83;;;0.83;;
74568;SDS011;63052;50.266;7.968;2022-10-16T12:47:20;4.97;;;0.80;;
74568;SDS011;63052;50.266;7.968;2022-10-16T13:28:52;2.47;;;1.37;;
74568;SDS011;63052;50.266;7.968;2022-10-16T13:39:06;4.37;;;1.27;;
74568;SDS011;63052;50.266;7.968;2022-10-16T13:49:05;3.37;;;1.30;;
74568;SDS011;63052;50.266;7.968;2022-10-16T13:59:25;7.73;;;2.83;;
74568;SDS011;63052;50.266;7.968;2022-10-16T14:09:27;4.40;;;1.87;;
74568;SDS011;63052;50.266;7.968;2022-10-16T14:19:31;2.20;;;1.50;;
74568;SDS011;63052;50.266;7.968;2022-10-16T14:29:34;9.43;;;1.33;;
74568;SDS011;63052;50.266;7.968;2022-10-16T14:39:36;6.27;;;1.97;;
74568;SDS011;63052;50.266;7.968;2022-10-16T14:49:40;6.17;;;1.90;;
74568;SDS011;63052;50.266;7.968;2022-10-16T14:59:43;3.77;;;1.90;;
74568;SDS011;63052;50.266;7.968;2022-10-16T15:09:46;14.37;;;1.90;;
74568;SDS011;63052;50.266;7.968;2022-10-16T15:19:49;4.73;;;1.53;;
74568;SDS011;63052;50.266;7.968;2022-10-16T15:29:52;11.67;;;1.40;;
74568;SDS011;63052;50.266;7.968;2022-10-16T15:39:54;4.33;;;1.43;;
74568;SDS011;63052;50.266;7.968;2022-10-16T15:49:57;1.77;;;1.60;;
74568;SDS011;63052;50.266;7.968;2022-10-16T15:59:59;1.80;;;1.30;;
74568;SDS011;63052;50.266;7.968;2022-10-16T16:10:02;4.43;;;1.80;;
74568;SDS011;63052;50.266;7.968;2022-10-16T16:20:06;6.13;;;2.00;;
74568;SDS011;63052;50.266;7.968;2022-10-16T16:30:10;6.70;;;2.10;;
74568;SDS011;63052;50.266;7.968;2022-10-16T16:40:13;2.67;;;1.80;;
74568;SDS011;63052;50.266;7.968;2022-10-16T16:50:15;3.00;;;1.90;;
74568;SDS011;63052;50.266;7.968;2022-10-16T17:00:18;4.00;;;1.90;;
74568;SDS011;63052;50.266;7.968;2022-10-16T17:10:20;7.07;;;1.70;;
74568;SDS011;63052;50.266;7.968;2022-10-16T17:20:23;8.00;;;2.00;;
74568;SDS011;63052;50.266;7.968;2022-10-16T17:30:25;8.10;;;2.30;;
74568;SDS011;63052;50.266;7.968;2022-10-16T17:40:28;7.60;;;2.13;;
74568;SDS011;63052;50.266;7.968;2022-10-16T17:50:30;5.47;;;2.10;;
74568;SDS011;63052;50.266;7.968;2022-10-16T18:00:33;5.07;;;1.90;;
74568;SDS011;63052;50.266;7.968;2022-10-16T18:10:35;13.60;;;2.73;;
74568;SDS011;63052;50.266;7.968;2022-10-16T18:20:39;3.57;;;2.10;;
74568;SDS011;63052;50.266;7.968;2022-10-16T18:30:42;4.87;;;2.37;;
74568;SDS011;63052;50.266;7.968;2022-10-16T18:40:45;15.57;;;3.93;;
74568;SDS011;63052;50.266;7.968;2022-10-16T18:50:48;13.97;;;5.10;;
74568;SDS011;63052;50.266;7.968;2022-10-16T19:00:50;15.20;;;4.47;;
74568;SDS011;63052;50.266;7.968;2022-10-16T19:10:53;18.17;;;5.60;;
74568;SDS011;63052;50.266;7.968;2022-10-16T19:20:55;18.23;;;5.87;;
74568;SDS011;63052;50.266;7.968;2022-10-16T19:31:01;19.20;;;6.20;;
74568;SDS011;63052;50.266;7.968;2022-10-16T19:51:14;17.57;;;6.67;;
74568;SDS011;63052;50.266;7.968;2022-10-16T20:01:18;19.27;;;6.17;;
74568;SDS011;63052;50.266;7.968;2022-10-16T20:11:22;18.13;;;5.87;;
74568;SDS011;63052;50.266;7.968;2022-10-16T20:21:27;14.10;;;5.63;;
74568;SDS011;63052;50.266;7.968;2022-10-16T20:31:31;13.50;;;5.70;;
74568;SDS011;63052;50.266;7.968;2022-10-16T20:41:35;9.53;;;4.80;;
74568;SDS011;63052;50.266;7.968;2022-10-16T20:51:37;11.63;;;4.90;;
74568;SDS011;63052;50.266;7.968;2022-10-16T21:01:40;9.37;;;4.17;;
74568;SDS011;63052;50.266;7.968;2022-10-16T21:11:42;8.80;;;4.33;;
74568;SDS011;63052;50.266;7.968;2022-10-16T21:21:45;12.07;;;4.23;;
74568;SDS011;63052;50.266;7.968;2022-10-16T21:31:47;8.50;;;3.97;;
74568;SDS011;63052;50.266;7.968;2022-10-16T21:41:50;7.17;;;3.80;;
74568;SDS011;63052;50.266;7.968;2022-10-16T21:51:52;5.43;;;2.90;;
74568;SDS011;63052;50.266;7.968;2022-10-16T22:01:55;5.80;;;3.30;;
74568;SDS011;63052;50.266;7.968;2022-10-16T22:11:58;7.30;;;3.33;;
74568;SDS011;63052;50.266;7.968;2022-10-16T22:22:00;11.13;;;3.87;;
74568;SDS011;63052;50.266;7.968;2022-10-16T22:32:03;6.93;;;3.30;;
74568;SDS011;63052;50.266;7.968;2022-10-16T22:42:05;5.97;;;2.80;;
74568;SDS011;63052;50.266;7.968;2022-10-16T22:52:08;5.07;;;2.80;;
74568;SDS011;63052;50.266;7.968;2022-10-16T23:02:10;6.17;;;2.83;;
74568;SDS011;63052;50.266;7.968;2022-10-16T23:12:13;8.43;;;3.83;;
74568;SDS011;63052;50.266;7.968;2022-10-16T23:22:15;10.50;;;3.93;;
74568;SDS011;63052;50.266;7.968;2022-10-16T23:32:18;9.73;;;4.50;;
74568;SDS011;63052;50.266;7.968;2022-10-16T23:42:20;9.80;;;3.60;;
74568;SDS011;63052;50.266;7.968;2022-10-16T23:52:23;10.10;;;3.80;;
